CheckWX is a tool to help pilots better visualize weather data.  It is not intended as a substitute for an official pre-flight weather briefing.

13:16:07 UTC

PAOM METAR
Nome Airport
Nome, Alaska, USA
Current

23 mins ago

PAOM 161253Z AUTO 04004KT 10SM CLR 11/07 A2985 RMK AO2 SLP109 T01060067 TSNO
Observed
Jun-16 @ 12:53 UTC
Wind
  • 040° at 4 KTS
Visibility
10 SM
Flight Rules
VFR
Cloud Levels
  • Clear skies
Temperature
11°C / 52°F
Dewpoint
C / 45°F
Humidity
77%
Altimeter
29.85" Hg
Pressure
1010.82 hPa
Previous

1 hour ago

PAOM 161153Z AUTO 05007KT 10SM CLR 11/07 A2984 RMK AO2 SLP105 T01110072 10161 20106 51007 TSNO
Observed
Jun-16 @ 11:53 UTC
Wind
  • 050° at 7 KTS
Visibility
10 SM
Flight Rules
VFR
Cloud Levels
  • Clear skies
Temperature
11°C / 52°F
Dewpoint
C / 45°F
Humidity
77%
Altimeter
29.84" Hg
Pressure
1010.52 hPa
Previous

2 hours ago

PAOM 161053Z AUTO 05008KT 10SM CLR 12/07 A2984 RMK AO2 SLP104 T01170072 TSNO
Observed
Jun-16 @ 10:53 UTC
Wind
  • 050° at 8 KTS
Visibility
10 SM
Flight Rules
VFR
Cloud Levels
  • Clear skies
Temperature
12°C / 54°F
Dewpoint
C / 45°F
Humidity
72%
Altimeter
29.84" Hg
Pressure
1010.52 hPa